Time;durP1;ratioP1;P1;durP2;ratioP2;P2;SDS_P1;SDS_P2;PMS_P1;PMS_P2;Temp;Humidity;BMP_temperature;BMP_pressure;BME280_temperature;BME280_humidity;BME280_pressure;Samples;Min_cycle;Max_cycle;Signal;HPM_P1;HPM_P2
2023/05/06 00:02:09;;;;;;;0.50;0.50;;;;;;;16.68;96.70;99501.22;5053514;28;20610;-73
2023/05/06 00:04:37;;;;;;;0.40;0.40;;;;;;;16.53;96.05;99477.91;5052945;28;20708;-73
2023/05/06 00:07:04;;;;;;;0.43;0.43;;;;;;;16.57;95.96;99485.47;5052263;28;20595;-74
2023/05/06 00:09:30;;;;;;;0.60;0.60;;;;;;;16.63;95.61;99495.47;5052911;28;20204;-74
2023/05/06 00:11:57;;;;;;;0.60;0.60;;;;;;;16.61;95.44;99491.28;5052981;28;20216;-73
2023/05/06 00:14:24;;;;;;;0.40;0.40;;;;;;;16.49;95.67;99492.75;5052858;28;20557;-73
2023/05/06 00:16:52;;;;;;;0.50;0.50;;;;;;;16.43;96.04;99495.66;5052971;28;20244;-73
2023/05/06 00:19:19;;;;;;;0.40;0.40;;;;;;;16.45;95.90;99493.81;5052760;28;20238;-73
2023/05/06 00:21:46;;;;;;;0.60;0.60;;;;;;;16.46;95.70;99492.06;5053223;28;20197;-73
2023/05/06 00:24:13;;;;;;;0.50;0.50;;;;;;;16.46;95.55;99492.91;5053034;28;20286;-73
2023/05/06 00:26:39;;;;;;;0.50;0.50;;;;;;;16.46;95.68;99487.72;5052809;28;20197;-73
2023/05/06 00:29:06;;;;;;;0.50;0.50;;;;;;;16.46;95.31;99490.31;5052444;28;20303;-72
2023/05/06 00:31:33;;;;;;;1.00;1.00;;;;;;;16.43;95.54;99493.06;5052986;28;20205;-73
2023/05/06 00:34:01;;;;;;;0.57;0.57;;;;;;;16.35;95.53;99492.63;5052371;28;20345;-73
2023/05/06 00:36:27;;;;;;;0.40;0.40;;;;;;;16.31;96.20;99496.31;5052021;28;20240;-73
2023/05/06 00:38:54;;;;;;;0.40;0.40;;;;;;;16.29;96.13;99491.19;5052228;28;20205;-73
2023/05/06 00:41:21;;;;;;;0.60;0.60;;;;;;;16.22;96.30;99489.00;5051984;28;20673;-73
2023/05/06 00:43:47;;;;;;;0.50;0.50;;;;;;;16.19;96.41;99499.50;5052782;28;20740;-73
2023/05/06 00:46:15;;;;;;;0.40;0.40;;;;;;;16.10;96.94;99499.97;5052326;28;20627;-73
2023/05/06 00:48:43;;;;;;;0.40;0.40;;;;;;;15.99;96.71;99489.34;5052544;28;20254;-73
2023/05/06 00:51:12;;;;;;;0.60;0.60;;;;;;;15.97;97.66;99498.94;5052158;28;20266;-73
2023/05/06 00:53:39;;;;;;;0.60;0.60;;;;;;;15.91;97.67;99489.75;5051381;28;20220;-72
2023/05/06 00:56:07;;;;;;;0.50;0.50;;;;;;;15.88;98.11;99496.81;5052490;28;20735;-73
2023/05/06 00:58:34;;;;;;;0.50;0.50;;;;;;;15.84;98.28;99492.69;5051909;28;20204;-73
2023/05/06 01:01:01;;;;;;;0.40;0.40;;;;;;;15.84;98.37;99493.53;5052394;28;20197;-73
2023/05/06 01:03:28;;;;;;;0.50;0.50;;;;;;;15.82;97.77;99494.53;5051302;28;20196;-72
2023/05/06 01:06:04;;;;;;;0.50;0.50;;;;;;;15.80;97.81;99501.53;5051960;28;20212;-73
2023/05/06 01:08:36;;;;;;;0.57;0.57;;;;;;;15.73;98.05;99495.84;5051733;28;20211;-73
2023/05/06 01:11:09;;;;;;;0.50;0.50;;;;;;;15.70;98.15;99498.56;5051791;28;20200;-73
2023/05/06 01:13:45;;;;;;;0.50;0.50;;;;;;;15.62;97.81;99483.44;5051430;28;20223;-73
2023/05/06 01:16:14;;;;;;;0.60;0.60;;;;;;;15.63;98.00;99495.47;5051969;28;20557;-73
2023/05/06 01:18:43;;;;;;;0.60;0.60;;;;;;;15.56;97.95;99488.06;5050500;28;20192;-73
2023/05/06 01:21:11;;;;;;;0.50;0.50;;;;;;;15.57;98.28;99494.91;5052071;28;20204;-73
2023/05/06 01:23:56;;;;;;;0.50;0.50;;;;;;;15.51;98.42;99487.47;5051330;28;20262;-73
2023/05/06 01:26:23;;;;;;;0.60;0.60;;;;;;;15.45;98.45;99485.97;5051133;28;20200;-73
2023/05/06 01:28:50;;;;;;;0.50;0.50;;;;;;;15.41;98.84;99489.59;5051694;28;20208;-73
2023/05/06 01:31:24;;;;;;;0.60;0.60;;;;;;;15.35;99.02;99479.56;5051789;28;20202;-74
2023/05/06 01:33:58;;;;;;;0.70;0.70;;;;;;;15.28;99.61;99483.38;5050339;28;20221;-73
2023/05/06 01:36:29;;;;;;;0.47;0.47;;;;;;;15.20;100.00;99480.31;5050923;28;20290;-73
2023/05/06 01:39:03;;;;;;;0.70;0.70;;;;;;;15.13;100.00;99469.44;5050933;28;20261;-73
2023/05/06 01:41:33;;;;;;;0.47;0.47;;;;;;;14.98;100.00;99456.41;5050870;28;20252;-73
2023/05/06 01:44:01;;;;;;;0.60;0.60;;;;;;;15.11;100.00;99475.59;5051994;28;20201;-73
2023/05/06 01:46:29;;;;;;;0.47;0.47;;;;;;;15.07;100.00;99476.63;5051298;28;20209;-73
2023/05/06 01:48:58;;;;;;;0.60;0.60;;;;;;;14.98;100.00;99477.06;5048346;28;20629;-73
2023/05/06 01:51:25;;;;;;;0.40;0.40;;;;;;;14.84;100.00;99461.38;5051177;28;20262;-73
2023/05/06 01:53:51;;;;;;;0.40;0.40;;;;;;;14.76;100.00;99464.34;5050404;28;20221;-72
2023/05/06 01:56:20;;;;;;;0.50;0.50;;;;;;;14.70;100.00;99470.59;5051459;28;20584;-73
2023/05/06 01:58:46;;;;;;;0.50;0.50;;;;;;;14.64;100.00;99470.03;5050920;28;20264;-71
2023/05/06 02:01:13;;;;;;;0.50;0.50;;;;;;;14.53;100.00;99460.22;5051266;28;20200;-73
2023/05/06 02:03:40;;;;;;;0.57;0.57;;;;;;;14.50;100.00;99473.25;5051037;28;20196;-73
2023/05/06 02:06:06;;;;;;;0.50;0.50;;;;;;;14.33;100.00;99444.78;5050854;28;20205;-74
2023/05/06 02:08:33;;;;;;;0.60;0.60;;;;;;;14.48;100.00;99464.75;5050459;28;20710;-73
2023/05/06 02:11:00;;;;;;;0.50;0.50;;;;;;;14.48;100.00;99472.47;5050504;28;20274;-73
2023/05/06 02:13:28;;;;;;;0.40;0.40;;;;;;;14.47;100.00;99468.25;5050574;28;20759;-72
2023/05/06 02:15:55;;;;;;;0.50;0.50;;;;;;;14.48;100.00;99469.91;5050694;28;20201;-73
2023/05/06 02:18:21;;;;;;;0.40;0.40;;;;;;;14.51;100.00;99469.75;5050566;28;20251;-73
2023/05/06 02:20:48;;;;;;;0.70;0.63;;;;;;;14.51;100.00;99464.59;5050870;28;20263;-73
2023/05/06 02:23:15;;;;;;;0.50;0.50;;;;;;;14.39;100.00;99462.56;5048674;28;20199;-73
2023/05/06 02:25:41;;;;;;;0.60;0.60;;;;;;;14.50;100.00;99470.69;5049914;28;20582;-72
2023/05/06 02:28:08;;;;;;;0.50;0.50;;;;;;;14.51;100.00;99468.91;5050193;28;20668;-73
2023/05/06 02:30:36;;;;;;;0.40;0.40;;;;;;;14.54;100.00;99459.28;5050843;28;20219;-73
2023/05/06 02:33:03;;;;;;;0.50;0.50;;;;;;;14.56;100.00;99462.66;5050624;28;20212;-73
2023/05/06 02:35:29;;;;;;;0.43;0.43;;;;;;;14.58;100.00;99460.84;5050560;28;20581;-73
2023/05/06 02:37:56;;;;;;;0.57;0.57;;;;;;;14.52;100.00;99457.69;5049788;28;20216;-72
2023/05/06 02:40:23;;;;;;;0.60;0.60;;;;;;;14.59;100.00;99472.84;5050601;28;20258;-72
2023/05/06 02:42:50;;;;;;;0.60;0.60;;;;;;;14.48;100.00;99467.31;5050268;28;20674;-72
2023/05/06 02:45:16;;;;;;;0.40;0.40;;;;;;;14.38;100.00;99465.25;5050578;28;20193;-73
2023/05/06 02:47:45;;;;;;;0.50;0.50;;;;;;;14.23;100.00;99464.13;5046259;28;20199;-73
2023/05/06 02:50:11;;;;;;;0.47;0.47;;;;;;;14.19;100.00;99463.41;5049844;28;20589;-72
2023/05/06 02:52:38;;;;;;;0.50;0.50;;;;;;;14.16;100.00;99473.03;5050878;28;20274;-72
2023/05/06 02:55:06;;;;;;;0.50;0.50;;;;;;;14.14;100.00;99474.84;5050169;28;20209;-72
2023/05/06 02:57:33;;;;;;;0.70;0.70;;;;;;;14.09;100.00;99477.59;5050716;28;20213;-72
2023/05/06 02:59:59;;;;;;;0.50;0.50;;;;;;;14.05;100.00;99470.09;5050222;28;20296;-72
2023/05/06 03:02:26;;;;;;;0.73;0.73;;;;;;;14.01;100.00;99471.13;5050225;28;20206;-72
2023/05/06 03:04:54;;;;;;;0.73;0.73;;;;;;;13.95;100.00;99463.66;5049869;28;20726;-73
2023/05/06 03:07:21;;;;;;;0.50;0.50;;;;;;;13.98;100.00;99468.69;5049602;28;20204;-73
2023/05/06 03:09:47;;;;;;;0.50;0.50;;;;;;;13.90;100.00;99463.84;5050360;28;20254;-73
2023/05/06 03:12:14;;;;;;;0.47;0.47;;;;;;;13.91;100.00;99472.41;5049871;28;20201;-72
2023/05/06 03:14:41;;;;;;;0.50;0.50;;;;;;;13.77;100.00;99451.53;5050187;28;20220;-72
2023/05/06 03:17:08;;;;;;;0.50;0.50;;;;;;;13.92;100.00;99479.25;5052203;28;20197;-73
2023/05/06 03:19:34;;;;;;;0.50;0.50;;;;;;;13.94;100.00;99480.84;5054337;28;20569;-72
2023/05/06 03:22:02;;;;;;;0.40;0.40;;;;;;;13.91;100.00;99469.84;5054234;28;20670;-72
2023/05/06 03:24:29;;;;;;;0.40;0.40;;;;;;;13.99;100.00;99480.66;5053838;28;20197;-72
2023/05/06 03:26:57;;;;;;;0.40;0.40;;;;;;;14.03;100.00;99489.91;5054106;28;20249;-72
2023/05/06 03:29:24;;;;;;;0.40;0.40;;;;;;;13.95;100.00;99469.66;5053035;28;20275;-72
2023/05/06 03:31:50;;;;;;;0.50;0.50;;;;;;;14.10;100.00;99496.50;5053924;28;20204;-72
2023/05/06 03:34:17;;;;;;;0.50;0.50;;;;;;;14.06;100.00;99494.94;5053647;28;20218;-74
2023/05/06 03:36:44;;;;;;;0.53;0.53;;;;;;;13.99;100.00;99502.09;5053590;28;20265;-72
2023/05/06 03:39:12;;;;;;;0.60;0.60;;;;;;;14.03;100.00;99505.38;5053706;28;20205;-73
2023/05/06 03:41:39;;;;;;;0.47;0.47;;;;;;;14.05;100.00;99507.03;5051923;28;20206;-72
2023/05/06 03:44:05;;;;;;;0.50;0.50;;;;;;;14.05;100.00;99498.44;5053710;28;20193;-73
2023/05/06 03:46:32;;;;;;;0.60;0.60;;;;;;;14.18;100.00;99513.31;5053310;28;20269;-72
2023/05/06 03:49:01;;;;;;;0.40;0.40;;;;;;;14.22;100.00;99503.69;5053209;28;20211;-73
2023/05/06 03:51:28;;;;;;;0.50;0.50;;;;;;;14.31;100.00;99518.78;5052918;28;20299;-72
2023/05/06 03:53:55;;;;;;;0.60;0.60;;;;;;;14.36;100.00;99519.44;5053568;28;20221;-72
2023/05/06 03:56:23;;;;;;;0.40;0.40;;;;;;;14.39;100.00;99519.31;5053282;28;20205;-73
2023/05/06 03:58:50;;;;;;;0.80;0.80;;;;;;;14.37;100.00;99497.91;5053054;28;20206;-72
2023/05/06 04:01:17;;;;;;;0.43;0.43;;;;;;;14.46;100.00;99522.47;5053776;28;20206;-73
2023/05/06 04:03:43;;;;;;;0.60;0.60;;;;;;;14.55;100.00;99528.06;5052889;28;20192;-72
2023/05/06 04:06:10;;;;;;;0.40;0.40;;;;;;;14.60;100.00;99514.97;5053055;28;20204;-72
2023/05/06 04:08:37;;;;;;;0.73;0.73;;;;;;;14.60;100.00;99513.19;5053336;28;20742;-72
2023/05/06 04:11:04;;;;;;;0.33;0.33;;;;;;;14.66;100.00;99522.44;5052811;28;20211;-72
2023/05/06 04:13:33;;;;;;;0.50;0.50;;;;;;;14.56;100.00;99532.31;5052700;28;20216;-72
2023/05/06 04:16:00;;;;;;;0.50;0.50;;;;;;;14.46;100.00;99523.31;5052810;28;20259;-72
2023/05/06 04:18:26;;;;;;;0.40;0.40;;;;;;;14.46;100.00;99530.19;5052972;28;20197;-72
2023/05/06 04:20:53;;;;;;;0.90;0.90;;;;;;;14.29;100.00;99520.59;5050999;28;20201;-72
2023/05/06 04:23:20;;;;;;;0.40;0.40;;;;;;;14.29;100.00;99530.06;5052904;28;20201;-73
2023/05/06 04:25:48;;;;;;;0.60;0.60;;;;;;;14.28;100.00;99533.56;5052685;28;20206;-73
2023/05/06 04:28:16;;;;;;;0.50;0.50;;;;;;;14.33;100.00;99537.63;5049943;28;20239;-72
2023/05/06 04:30:45;;;;;;;0.77;0.77;;;;;;;14.36;100.00;99532.34;5052360;28;20296;-73
2023/05/06 04:33:12;;;;;;;0.50;0.50;;;;;;;14.56;100.00;99542.63;5051921;28;20246;-73
2023/05/06 04:35:40;;;;;;;0.40;0.40;;;;;;;14.76;100.00;99536.59;5052238;28;20661;-72
2023/05/06 04:38:06;;;;;;;0.37;0.37;;;;;;;14.96;100.00;99544.25;5052161;28;20262;-72
2023/05/06 04:40:35;;;;;;;0.60;0.60;;;;;;;15.12;99.17;99534.09;5052214;28;20207;-72
2023/05/06 04:43:02;;;;;;;0.80;0.80;;;;;;;15.19;98.72;99525.13;5052267;28;20295;-73
2023/05/06 04:45:28;;;;;;;0.53;0.53;;;;;;;15.20;98.48;99516.47;5052441;28;20200;-73
2023/05/06 04:47:56;;;;;;;0.50;0.50;;;;;;;15.44;98.07;99529.97;5048390;28;20212;-73
2023/05/06 04:50:23;;;;;;;0.50;0.50;;;;;;;15.69;98.06;99538.25;5052334;28;20196;-72
2023/05/06 04:52:50;;;;;;;0.43;0.43;;;;;;;15.96;95.31;99541.22;5051514;28;20263;-72
2023/05/06 04:55:16;;;;;;;0.53;0.53;;;;;;;16.20;94.07;99542.56;5052598;28;20209;-72
2023/05/06 04:57:43;;;;;;;0.50;0.50;;;;;;;16.24;92.53;99541.50;5051976;28;20274;-72
2023/05/06 05:00:10;;;;;;;0.40;0.40;;;;;;;16.26;92.78;99542.25;5051926;28;20274;-72
2023/05/06 05:02:37;;;;;;;0.63;0.63;;;;;;;16.42;93.54;99543.13;5052149;28;20216;-72
2023/05/06 05:05:06;;;;;;;0.80;0.80;;;;;;;16.54;92.85;99547.66;5051393;28;20221;-72
2023/05/06 05:07:33;;;;;;;0.70;0.70;;;;;;;16.75;92.27;99544.00;5052197;28;20211;-72
2023/05/06 05:09:59;;;;;;;0.50;0.50;;;;;;;16.98;92.10;99545.38;5051791;28;20635;-73
2023/05/06 05:12:26;;;;;;;0.80;0.80;;;;;;;17.22;91.60;99540.63;5051388;28;20200;-73
2023/05/06 05:14:53;;;;;;;0.63;0.63;;;;;;;17.36;90.84;99539.84;5051541;28;20270;-73
2023/05/06 05:17:20;;;;;;;0.50;0.50;;;;;;;17.54;90.27;99550.03;5051254;28;20200;-72
2023/05/06 05:19:46;;;;;;;0.40;0.40;;;;;;;17.76;90.50;99542.75;5051598;28;20204;-72
2023/05/06 05:22:14;;;;;;;0.40;0.40;;;;;;;18.03;86.76;99555.84;5051448;28;21285;-72
2023/05/06 05:24:41;;;;;;;0.50;0.50;;;;;;;18.14;87.00;99563.03;5051809;28;20189;-73
2023/05/06 05:27:08;;;;;;;0.70;0.70;;;;;;;18.32;85.12;99561.94;5051311;28;20205;-72
2023/05/06 05:29:34;;;;;;;0.43;0.43;;;;;;;18.39;82.93;99568.44;5051905;28;20268;-72
2023/05/06 05:32:01;;;;;;;0.53;0.53;;;;;;;18.35;82.06;99567.78;5051629;28;20205;-73
2023/05/06 05:34:28;;;;;;;0.53;0.53;;;;;;;18.44;82.11;99571.59;5050673;28;21254;-72
2023/05/06 05:36:55;;;;;;;0.40;0.40;;;;;;;18.58;81.65;99570.81;5051224;28;20285;-72
2023/05/06 05:39:23;;;;;;;0.50;0.50;;;;;;;18.50;81.54;99555.69;5050610;28;20204;-72
2023/05/06 05:41:50;;;;;;;0.50;0.50;;;;;;;18.70;81.02;99568.31;5051003;28;20214;-73
2023/05/06 05:44:17;;;;;;;0.57;0.57;;;;;;;18.50;79.44;99576.47;5051034;28;20568;-73
2023/05/06 05:46:43;;;;;;;1.13;1.03;;;;;;;18.27;80.58;99563.97;5050489;28;20267;-73
2023/05/06 05:49:10;;;;;;;0.70;0.70;;;;;;;18.31;82.23;99568.06;5050619;28;20205;-73
2023/05/06 05:51:37;;;;;;;0.60;0.60;;;;;;;18.44;82.51;99565.56;5051282;28;20201;-74
2023/05/06 05:54:03;;;;;;;0.60;0.60;;;;;;;18.65;82.87;99546.97;5050828;28;20217;-72
2023/05/06 05:56:31;;;;;;;0.60;0.60;;;;;;;18.93;81.96;99560.88;5051174;28;20577;-73
2023/05/06 05:58:58;;;;;;;0.67;0.67;;;;;;;19.07;80.54;99563.44;5050630;28;20202;-73
2023/05/06 06:01:25;;;;;;;0.60;0.60;;;;;;;19.25;80.69;99557.09;5050184;28;20209;-73
2023/05/06 06:03:53;;;;;;;0.50;0.50;;;;;;;19.33;77.99;99562.63;5051044;28;20228;-73
2023/05/06 06:06:19;;;;;;;0.40;0.40;;;;;;;19.53;78.16;99554.44;5050928;28;20276;-72
2023/05/06 06:08:46;;;;;;;0.40;0.40;;;;;;;19.85;76.94;99563.59;5051217;28;20690;-73
2023/05/06 06:11:13;;;;;;;0.47;0.47;;;;;;;20.14;75.56;99560.84;5050531;28;20252;-72
2023/05/06 06:13:41;;;;;;;0.40;0.40;;;;;;;20.23;73.75;99557.59;5050468;28;20675;-72
2023/05/06 06:16:10;;;;;;;1.23;0.63;;;;;;;20.06;76.20;99548.34;5050748;28;20253;-72
2023/05/06 06:18:37;;;;;;;0.37;0.37;;;;;;;20.19;75.66;99563.97;5050363;28;20199;-72
2023/05/06 06:21:04;;;;;;;0.30;0.30;;;;;;;20.31;77.01;99563.19;5050853;28;20204;-72
2023/05/06 06:23:31;;;;;;;0.50;0.50;;;;;;;20.52;74.21;99559.09;5050801;28;20569;-72
2023/05/06 06:25:57;;;;;;;0.53;0.53;;;;;;;20.74;75.43;99556.69;5050729;28;20200;-73
2023/05/06 06:28:25;;;;;;;0.47;0.47;;;;;;;20.91;73.55;99561.56;5050415;28;20266;-72
2023/05/06 06:30:53;;;;;;;0.60;0.60;;;;;;;21.14;72.38;99566.97;5050464;28;20207;-72
2023/05/06 06:33:19;;;;;;;0.43;0.43;;;;;;;21.20;72.54;99564.75;5050761;28;20208;-73
2023/05/06 06:35:46;;;;;;;0.40;0.40;;;;;;;21.43;71.45;99560.50;5048085;28;20646;-72
2023/05/06 06:38:13;;;;;;;0.43;0.43;;;;;;;21.50;70.85;99563.50;5050431;28;20277;-73
2023/05/06 06:40:39;;;;;;;0.40;0.40;;;;;;;21.69;71.16;99559.44;5049856;28;20219;-72
2023/05/06 06:43:06;;;;;;;0.33;0.33;;;;;;;21.63;70.07;99554.69;5050162;28;20213;-73
2023/05/06 06:45:33;;;;;;;0.47;0.47;;;;;;;21.67;68.84;99555.28;5050102;28;20257;-72
2023/05/06 06:48:01;;;;;;;0.40;0.40;;;;;;;21.69;69.28;99554.22;5048202;28;20195;-73
2023/05/06 06:50:27;;;;;;;0.40;0.40;;;;;;;21.90;70.04;99549.25;5050567;28;20201;-72
2023/05/06 06:52:54;;;;;;;0.50;0.50;;;;;;;21.91;66.79;99556.13;5053947;28;20274;-72
2023/05/06 06:55:21;;;;;;;0.50;0.50;;;;;;;22.07;68.41;99551.41;5054805;28;20216;-72
2023/05/06 06:57:48;;;;;;;0.50;0.50;;;;;;;22.22;69.14;99550.28;5054214;28;20675;-72
2023/05/06 07:00:15;;;;;;;0.77;0.77;;;;;;;22.36;68.31;99554.44;5054792;28;20742;-73
2023/05/06 07:02:42;;;;;;;0.50;0.50;;;;;;;22.62;66.23;99563.72;5054005;28;20250;-72
2023/05/06 07:05:10;;;;;;;0.40;0.40;;;;;;;22.71;65.89;99573.53;5054111;28;20239;-72
2023/05/06 07:07:37;;;;;;;0.73;0.73;;;;;;;22.83;66.35;99558.66;5053964;28;20246;-73
2023/05/06 07:10:04;;;;;;;0.60;0.60;;;;;;;22.98;65.25;99560.06;5053509;28;20201;-73
2023/05/06 07:12:31;;;;;;;0.40;0.40;;;;;;;22.93;63.68;99557.84;5053959;28;20651;-72
2023/05/06 07:14:58;;;;;;;0.60;0.60;;;;;;;22.96;63.02;99557.59;5053347;28;20278;-72
2023/05/06 07:17:24;;;;;;;0.57;0.57;;;;;;;22.91;64.76;99554.50;5053726;28;20680;-72
2023/05/06 07:19:51;;;;;;;0.30;0.30;;;;;;;23.20;65.83;99554.81;5053865;28;20201;-72
2023/05/06 07:22:19;;;;;;;0.40;0.40;;;;;;;23.13;62.08;99510.97;5053989;28;20255;-72
2023/05/06 07:24:46;;;;;;;0.40;0.40;;;;;;;23.34;60.85;99544.06;5053330;28;20196;-72
2023/05/06 07:27:12;;;;;;;0.20;0.20;;;;;;;23.38;63.23;99555.13;5053796;28;20204;-73
2023/05/06 07:29:40;;;;;;;0.50;0.50;;;;;;;23.55;59.97;99554.66;5049834;28;20286;-72
2023/05/06 07:32:06;;;;;;;0.30;0.30;;;;;;;23.64;58.86;99564.38;5049078;28;20209;-72
2023/05/06 07:34:34;;;;;;;0.30;0.30;;;;;;;23.91;57.52;99561.28;5053026;28;20220;-72
2023/05/06 07:37:02;;;;;;;0.40;0.40;;;;;;;24.01;56.34;99557.75;5052722;28;20558;-72
2023/05/06 07:39:30;;;;;;;0.40;0.40;;;;;;;24.05;56.30;99538.22;5053229;28;20200;-72
2023/05/06 07:41:57;;;;;;;0.30;0.30;;;;;;;24.52;54.90;99557.00;5050928;28;20687;-72
2023/05/06 07:44:24;;;;;;;0.63;0.63;;;;;;;24.83;54.32;99558.69;5052986;28;20197;-72
2023/05/06 07:46:50;;;;;;;0.30;0.30;;;;;;;25.01;51.82;99559.69;5052684;28;20274;-72
2023/05/06 07:49:17;;;;;;;0.20;0.20;;;;;;;25.23;54.47;99557.84;5050349;28;20201;-72
2023/05/06 07:51:44;;;;;;;0.20;0.20;;;;;;;25.39;53.16;99563.38;5052422;28;20201;-72
2023/05/06 07:54:11;;;;;;;0.30;0.30;;;;;;;25.39;51.21;99558.97;5052727;28;20266;-72
2023/05/06 07:56:39;;;;;;;0.30;0.30;;;;;;;25.50;50.74;99563.28;5050813;28;20303;-72
2023/05/06 07:59:06;;;;;;;0.30;0.30;;;;;;;25.57;52.25;99561.78;5052692;28;20254;-72
2023/05/06 08:01:32;;;;;;;0.40;0.40;;;;;;;25.67;51.34;99562.63;5052983;28;20205;-73
2023/05/06 08:04:00;;;;;;;0.30;0.30;;;;;;;25.85;48.94;99571.44;5051946;28;20236;-72
2023/05/06 08:06:26;;;;;;;0.20;0.20;;;;;;;25.99;48.06;99562.31;5053121;28;20206;-72
2023/05/06 08:08:53;;;;;;;0.20;0.20;;;;;;;26.08;45.99;99578.06;5051949;28;20201;-71
2023/05/06 08:11:20;;;;;;;0.73;0.73;;;;;;;25.49;45.28;99565.06;5052653;28;20204;-72
2023/05/06 08:13:48;;;;;;;0.30;0.30;;;;;;;25.26;47.19;99562.81;5052653;28;20215;-71
2023/05/06 08:16:14;;;;;;;0.40;0.30;;;;;;;25.36;49.34;99543.50;5052887;28;20220;-72
2023/05/06 08:18:41;;;;;;;0.30;0.30;;;;;;;25.34;49.73;99557.69;5052880;28;20246;-72
2023/05/06 08:21:08;;;;;;;0.53;0.53;;;;;;;25.57;48.71;99556.53;5052380;28;20546;-72
2023/05/06 08:23:35;;;;;;;0.40;0.40;;;;;;;25.85;48.03;99566.19;5052739;28;20200;-72
2023/05/06 08:26:01;;;;;;;0.40;0.40;;;;;;;26.08;48.16;99567.56;5052264;28;20636;-72
2023/05/06 08:28:29;;;;;;;0.30;0.30;;;;;;;26.22;47.23;99566.34;5052572;28;20201;-72
2023/05/06 08:30:57;;;;;;;0.20;0.20;;;;;;;26.34;46.73;99572.25;5052425;28;20209;-72
2023/05/06 08:33:23;;;;;;;0.30;0.30;;;;;;;26.46;47.38;99571.13;5052341;28;20255;-72
2023/05/06 08:35:50;;;;;;;0.20;0.20;;;;;;;26.53;44.41;99569.56;5052340;28;20282;-72
2023/05/06 08:38:17;;;;;;;0.20;0.20;;;;;;;26.47;46.14;99564.88;5052609;28;20254;-72
2023/05/06 08:40:45;;;;;;;0.40;0.40;;;;;;;26.43;49.02;99555.66;5051991;28;20233;-72
2023/05/06 08:43:13;;;;;;;0.30;0.30;;;;;;;26.78;46.54;99563.69;5052380;28;20631;-72
2023/05/06 08:45:41;;;;;;;0.27;0.27;;;;;;;26.95;44.00;99562.91;5051345;28;20197;-73
2023/05/06 08:48:09;;;;;;;0.30;0.30;;;;;;;26.90;45.80;99559.09;5051765;28;20205;-71
2023/05/06 08:50:40;;;;;;;0.40;0.40;;;;;;;26.67;43.52;99555.97;5051739;28;20208;-71
2023/05/06 08:53:09;;;;;;;0.20;0.20;;;;;;;25.70;43.99;99567.59;5051962;28;20250;-71
2023/05/06 08:55:36;;;;;;;0.43;0.43;;;;;;;25.16;45.59;99567.19;5052384;28;20216;-72
2023/05/06 08:58:06;;;;;;;0.43;0.43;;;;;;;24.76;45.35;99562.75;5052072;28;20234;-71
2023/05/06 09:00:33;;;;;;;0.63;0.63;;;;;;;24.83;47.28;99566.56;5052225;28;20209;-72
2023/05/06 09:03:00;;;;;;;0.40;0.40;;;;;;;24.79;45.92;99559.88;5052167;28;20613;-71
2023/05/06 09:05:28;;;;;;;0.30;0.30;;;;;;;24.79;46.68;99556.41;5051458;28;20232;-72
2023/05/06 09:07:55;;;;;;;0.30;0.30;;;;;;;24.72;45.38;99555.31;5051851;28;20262;-71
2023/05/06 09:10:22;;;;;;;0.40;0.40;;;;;;;24.63;47.57;99553.44;5048032;28;20262;-72
2023/05/06 09:12:48;;;;;;;0.50;0.50;;;;;;;24.37;48.25;99550.41;5051595;28;20664;-71
2023/05/06 09:15:15;;;;;;;0.40;0.40;;;;;;;24.28;49.01;99536.31;5051003;28;20573;-72
2023/05/06 09:17:42;;;;;;;0.30;0.30;;;;;;;24.30;47.68;99551.91;5051050;28;20208;-72
2023/05/06 09:20:12;;;;;;;0.50;0.50;;;;;;;24.04;49.33;99551.44;5051601;28;20250;-72
2023/05/06 09:22:41;;;;;;;0.40;0.40;;;;;;;23.97;49.46;99550.28;5051614;28;20258;-72
2023/05/06 09:25:10;;;;;;;0.70;0.53;;;;;;;23.86;49.53;99551.19;5051493;28;20197;-72
2023/05/06 09:27:37;;;;;;;0.40;0.40;;;;;;;23.66;48.94;99546.75;5051959;28;20677;-72
2023/05/06 09:30:06;;;;;;;0.30;0.30;;;;;;;23.70;49.12;99547.31;5051416;28;20696;-72
2023/05/06 09:32:33;;;;;;;0.27;0.27;;;;;;;23.69;50.66;99525.53;5051854;28;20274;-72
2023/05/06 09:35:01;;;;;;;0.40;0.40;;;;;;;23.81;49.25;99542.84;5050799;28;20213;-72
2023/05/06 09:37:28;;;;;;;0.50;0.50;;;;;;;23.50;48.88;99531.44;5051094;28;20204;-72
2023/05/06 09:39:58;;;;;;;0.30;0.30;;;;;;;23.65;50.26;99529.34;5050847;28;20212;-72
2023/05/06 09:42:27;;;;;;;0.30;0.30;;;;;;;23.92;50.28;99531.50;5051459;28;20882;-72
2023/05/06 09:44:55;;;;;;;0.70;0.70;;;;;;;24.03;49.48;99532.28;5050556;28;20205;-72
2023/05/06 09:47:22;;;;;;;1.17;1.17;;;;;;;23.85;49.02;99528.56;5050561;28;20201;-73
2023/05/06 09:49:49;;;;;;;1.10;0.50;;;;;;;23.75;48.58;99529.47;5051246;28;20207;-72
2023/05/06 09:52:18;;;;;;;0.23;0.23;;;;;;;23.81;48.37;99523.72;5051127;28;20204;-72
2023/05/06 09:54:45;;;;;;;0.70;0.70;;;;;;;23.95;48.37;99526.84;5050567;28;20204;-73
2023/05/06 09:57:15;;;;;;;0.33;0.33;;;;;;;23.98;47.81;99529.19;5050352;28;20258;-73
2023/05/06 09:59:43;;;;;;;0.30;0.30;;;;;;;24.05;50.27;99530.34;5050734;28;20228;-72
2023/05/06 10:02:11;;;;;;;0.30;0.30;;;;;;;24.12;49.14;99519.41;5050817;28;20577;-73
2023/05/06 10:04:40;;;;;;;0.40;0.40;;;;;;;24.08;48.69;99508.31;5050413;28;20290;-72
2023/05/06 10:07:08;;;;;;;0.40;0.40;;;;;;;24.31;47.97;99522.13;5050762;28;20196;-73
2023/05/06 10:09:37;;;;;;;0.30;0.30;;;;;;;24.11;48.33;99520.31;5050629;28;20204;-72
2023/05/06 10:12:06;;;;;;;0.57;0.57;;;;;;;24.11;48.06;99515.91;5050156;28;20262;-74
2023/05/06 10:14:34;;;;;;;0.30;0.30;;;;;;;24.22;50.27;99520.28;5050877;28;20577;-74
2023/05/06 10:17:02;;;;;;;0.53;0.53;;;;;;;24.35;50.51;99523.53;5049979;28;20228;-73
2023/05/06 10:19:30;;;;;;;0.27;0.27;;;;;;;24.21;46.64;99527.31;5050658;28;20204;-74
2023/05/06 10:22:06;;;;;;;0.30;0.30;;;;;;;24.09;46.90;99524.88;5050416;28;20193;-73
2023/05/06 10:24:41;;;;;;;0.30;0.30;;;;;;;24.05;48.59;99516.44;5050901;28;20243;-74
2023/05/06 10:27:12;;;;;;;0.40;0.40;;;;;;;24.18;47.79;99517.09;5050374;28;20218;-73
2023/05/06 10:29:42;;;;;;;0.30;0.30;;;;;;;24.16;47.31;99521.63;5050343;28;20201;-73
2023/05/06 10:32:10;;;;;;;0.40;0.40;;;;;;;23.99;47.28;99522.19;5049783;28;20201;-74
2023/05/06 10:34:48;;;;;;;0.30;0.30;;;;;;;23.85;47.40;99512.00;5048633;28;20205;-74
2023/05/06 10:37:15;;;;;;;0.40;0.40;;;;;;;23.98;47.68;99516.09;5039506;28;20200;-70
2023/05/06 10:39:44;;;;;;;0.37;0.37;;;;;;;23.90;47.05;99515.94;5043317;28;20255;-71
2023/05/06 10:42:10;;;;;;;0.40;0.40;;;;;;;23.83;46.89;99504.31;5042788;28;20209;-73
2023/05/06 10:44:57;;;;;;;0.40;0.40;;;;;;;23.95;47.81;99511.13;5047910;28;20575;-72
2023/05/06 10:47:24;;;;;;;0.50;0.50;;;;;;;23.92;48.39;99516.63;5049874;28;20258;-72
2023/05/06 10:50:20;;;;;;;0.40;0.40;;;;;;;23.90;48.17;99518.56;5049466;28;20254;-72
2023/05/06 10:52:50;;;;;;;0.40;0.40;;;;;;;23.82;47.38;99514.88;5049666;28;20203;-73
2023/05/06 10:55:28;;;;;;;0.57;0.57;;;;;;;23.83;49.17;99517.38;5047532;28;20235;-73
2023/05/06 10:57:56;;;;;;;0.40;0.40;;;;;;;23.87;47.23;99513.56;5045829;28;20726;-73
2023/05/06 11:00:25;;;;;;;0.37;0.37;;;;;;;23.89;47.77;99519.50;5049128;28;20283;-72
2023/05/06 11:02:56;;;;;;;0.40;0.40;;;;;;;23.69;48.83;99522.91;5049270;28;20220;-73
2023/05/06 11:05:23;;;;;;;0.30;0.30;;;;;;;23.77;48.25;99517.91;5047440;28;20224;-73
2023/05/06 11:07:51;;;;;;;0.30;0.30;;;;;;;23.58;49.01;99523.00;5047685;28;20201;-73
2023/05/06 11:10:31;;;;;;;0.30;0.30;;;;;;;23.60;49.21;99528.91;5048303;28;20199;-73
2023/05/06 11:12:59;;;;;;;0.30;0.30;;;;;;;23.72;49.10;99520.06;5049117;28;20300;-73
2023/05/06 11:15:38;;;;;;;0.30;0.30;;;;;;;23.85;48.67;99528.56;5049866;28;20324;-73
2023/05/06 11:18:38;;;;;;;0.30;0.30;;;;;;;24.07;48.89;99524.16;5046524;28;20211;-73
2023/05/06 11:21:39;;;;;;;0.40;0.40;;;;;;;24.00;47.72;99529.94;5049982;28;20204;-73
2023/05/06 11:24:07;;;;;;;0.30;0.30;;;;;;;23.83;48.07;99522.63;5043081;28;20201;-73
2023/05/06 11:26:35;;;;;;;0.40;0.40;;;;;;;23.85;47.81;99520.69;5048135;28;20876;-73
2023/05/06 11:29:03;;;;;;;0.30;0.30;;;;;;;23.73;49.21;99515.66;5050003;28;20661;-73
2023/05/06 11:31:39;;;;;;;0.40;0.40;;;;;;;23.87;48.83;99529.28;5049223;28;20198;-73
2023/05/06 11:34:09;;;;;;;0.37;0.37;;;;;;;23.96;49.22;99523.28;5049702;28;20232;-73
2023/05/06 11:36:37;;;;;;;0.40;0.40;;;;;;;24.04;47.77;99523.44;5049432;28;20274;-74